sensor_id;sensor_type;location;lat;lon;timestamp;P1;durP1;ratioP1;P2;durP2;ratioP2
52724;SDS011;38621;52.830;6.914;2023-08-07T00:00:31;6.20;;;3.00;;
52724;SDS011;38621;52.830;6.914;2023-08-07T00:02:57;6.15;;;2.95;;
52724;SDS011;38621;52.830;6.914;2023-08-07T00:05:23;6.10;;;3.50;;
52724;SDS011;38621;52.830;6.914;2023-08-07T00:07:48;7.00;;;3.17;;
52724;SDS011;38621;52.830;6.914;2023-08-07T00:10:14;6.38;;;3.08;;
52724;SDS011;38621;52.830;6.914;2023-08-07T00:12:40;5.25;;;3.22;;
52724;SDS011;38621;52.830;6.914;2023-08-07T00:15:06;4.57;;;3.30;;
52724;SDS011;38621;52.830;6.914;2023-08-07T00:17:32;4.82;;;3.33;;
52724;SDS011;38621;52.830;6.914;2023-08-07T00:19:58;6.50;;;3.90;;
52724;SDS011;38621;52.830;6.914;2023-08-07T00:22:23;6.95;;;3.80;;
52724;SDS011;38621;52.830;6.914;2023-08-07T00:24:50;5.22;;;3.75;;
52724;SDS011;38621;52.830;6.914;2023-08-07T00:27:15;6.70;;;3.90;;
52724;SDS011;38621;52.830;6.914;2023-08-07T00:29:41;7.80;;;4.00;;
52724;SDS011;38621;52.830;6.914;2023-08-07T00:32:07;5.47;;;3.67;;
52724;SDS011;38621;52.830;6.914;2023-08-07T00:34:33;6.78;;;4.15;;
52724;SDS011;38621;52.830;6.914;2023-08-07T00:36:59;6.82;;;3.60;;
52724;SDS011;38621;52.830;6.914;2023-08-07T00:39:25;7.45;;;3.97;;
52724;SDS011;38621;52.830;6.914;2023-08-07T00:41:51;6.05;;;3.70;;
52724;SDS011;38621;52.830;6.914;2023-08-07T00:44:16;5.97;;;3.60;;
52724;SDS011;38621;52.830;6.914;2023-08-07T00:46:42;5.80;;;3.22;;
52724;SDS011;38621;52.830;6.914;2023-08-07T00:49:09;5.88;;;3.38;;
52724;SDS011;38621;52.830;6.914;2023-08-07T00:51:37;6.88;;;3.10;;
52724;SDS011;38621;52.830;6.914;2023-08-07T00:54:03;6.53;;;3.55;;
52724;SDS011;38621;52.830;6.914;2023-08-07T00:56:30;5.10;;;3.15;;
52724;SDS011;38621;52.830;6.914;2023-08-07T00:59:00;6.97;;;3.28;;
52724;SDS011;38621;52.830;6.914;2023-08-07T01:01:26;4.53;;;3.25;;
52724;SDS011;38621;52.830;6.914;2023-08-07T01:03:52;5.07;;;3.25;;
52724;SDS011;38621;52.830;6.914;2023-08-07T01:06:18;4.65;;;3.15;;
52724;SDS011;38621;52.830;6.914;2023-08-07T01:08:44;4.97;;;3.40;;
52724;SDS011;38621;52.830;6.914;2023-08-07T01:14:00;6.68;;;3.58;;
52724;SDS011;38621;52.830;6.914;2023-08-07T01:19:01;6.03;;;3.50;;
52724;SDS011;38621;52.830;6.914;2023-08-07T01:21:29;5.65;;;3.28;;
52724;SDS011;38621;52.830;6.914;2023-08-07T01:23:57;4.20;;;2.58;;
52724;SDS011;38621;52.830;6.914;2023-08-07T01:26:23;4.30;;;2.90;;
52724;SDS011;38621;52.830;6.914;2023-08-07T01:29:00;4.18;;;2.92;;
52724;SDS011;38621;52.830;6.914;2023-08-07T01:31:37;5.78;;;2.88;;
52724;SDS011;38621;52.830;6.914;2023-08-07T01:34:05;5.82;;;3.00;;
52724;SDS011;38621;52.830;6.914;2023-08-07T01:36:33;6.50;;;3.10;;
52724;SDS011;38621;52.830;6.914;2023-08-07T01:39:00;4.90;;;2.92;;
52724;SDS011;38621;52.830;6.914;2023-08-07T01:41:28;6.20;;;2.88;;
52724;SDS011;38621;52.830;6.914;2023-08-07T01:43:55;5.20;;;2.85;;
52724;SDS011;38621;52.830;6.914;2023-08-07T01:46:20;5.72;;;2.63;;
52724;SDS011;38621;52.830;6.914;2023-08-07T01:48:46;4.95;;;2.60;;
52724;SDS011;38621;52.830;6.914;2023-08-07T01:51:12;4.50;;;2.40;;
52724;SDS011;38621;52.830;6.914;2023-08-07T01:53:38;4.20;;;2.47;;
52724;SDS011;38621;52.830;6.914;2023-08-07T01:56:03;4.65;;;2.47;;
52724;SDS011;38621;52.830;6.914;2023-08-07T01:58:29;4.47;;;2.42;;
52724;SDS011;38621;52.830;6.914;2023-08-07T02:00:55;5.15;;;2.20;;
52724;SDS011;38621;52.830;6.914;2023-08-07T02:03:20;5.07;;;2.30;;
52724;SDS011;38621;52.830;6.914;2023-08-07T02:05:46;7.00;;;2.60;;
52724;SDS011;38621;52.830;6.914;2023-08-07T02:08:12;4.53;;;2.40;;
52724;SDS011;38621;52.830;6.914;2023-08-07T02:10:38;4.00;;;2.42;;
52724;SDS011;38621;52.830;6.914;2023-08-07T02:13:03;4.97;;;2.63;;
52724;SDS011;38621;52.830;6.914;2023-08-07T02:15:29;3.90;;;2.20;;
52724;SDS011;38621;52.830;6.914;2023-08-07T02:17:55;3.67;;;2.20;;
52724;SDS011;38621;52.830;6.914;2023-08-07T02:20:20;3.88;;;2.20;;
52724;SDS011;38621;52.830;6.914;2023-08-07T02:22:46;7.10;;;2.25;;
52724;SDS011;38621;52.830;6.914;2023-08-07T02:25:12;3.85;;;2.40;;
52724;SDS011;38621;52.830;6.914;2023-08-07T02:27:38;4.25;;;2.15;;
52724;SDS011;38621;52.830;6.914;2023-08-07T02:30:04;4.60;;;2.25;;
52724;SDS011;38621;52.830;6.914;2023-08-07T02:32:30;4.82;;;1.88;;
52724;SDS011;38621;52.830;6.914;2023-08-07T02:34:56;7.10;;;2.53;;
52724;SDS011;38621;52.830;6.914;2023-08-07T02:37:21;5.90;;;2.30;;
52724;SDS011;38621;52.830;6.914;2023-08-07T02:39:47;4.70;;;2.10;;
52724;SDS011;38621;52.830;6.914;2023-08-07T02:42:13;3.15;;;1.63;;
52724;SDS011;38621;52.830;6.914;2023-08-07T02:44:39;4.68;;;1.75;;
52724;SDS011;38621;52.830;6.914;2023-08-07T02:47:04;3.33;;;1.73;;
52724;SDS011;38621;52.830;6.914;2023-08-07T02:49:31;5.13;;;1.80;;
52724;SDS011;38621;52.830;6.914;2023-08-07T02:51:56;7.78;;;2.13;;
52724;SDS011;38621;52.830;6.914;2023-08-07T02:54:22;4.53;;;1.77;;
52724;SDS011;38621;52.830;6.914;2023-08-07T02:56:48;6.20;;;1.98;;
52724;SDS011;38621;52.830;6.914;2023-08-07T02:59:14;5.55;;;1.80;;
52724;SDS011;38621;52.830;6.914;2023-08-07T03:01:40;3.03;;;1.77;;
52724;SDS011;38621;52.830;6.914;2023-08-07T03:04:06;5.32;;;1.80;;
52724;SDS011;38621;52.830;6.914;2023-08-07T03:06:31;8.38;;;1.80;;
52724;SDS011;38621;52.830;6.914;2023-08-07T03:08:57;11.20;;;1.90;;
52724;SDS011;38621;52.830;6.914;2023-08-07T03:11:23;5.43;;;1.50;;
52724;SDS011;38621;52.830;6.914;2023-08-07T03:13:48;4.28;;;1.98;;
52724;SDS011;38621;52.830;6.914;2023-08-07T03:16:14;7.82;;;2.15;;
52724;SDS011;38621;52.830;6.914;2023-08-07T03:18:40;4.50;;;1.40;;
52724;SDS011;38621;52.830;6.914;2023-08-07T03:21:06;5.20;;;1.52;;
52724;SDS011;38621;52.830;6.914;2023-08-07T03:23:32;4.68;;;1.65;;
52724;SDS011;38621;52.830;6.914;2023-08-07T03:26:08;5.35;;;1.60;;
52724;SDS011;38621;52.830;6.914;2023-08-07T03:28:35;5.35;;;1.73;;
52724;SDS011;38621;52.830;6.914;2023-08-07T03:31:01;5.32;;;1.85;;
52724;SDS011;38621;52.830;6.914;2023-08-07T03:33:27;4.10;;;1.75;;
52724;SDS011;38621;52.830;6.914;2023-08-07T03:35:53;7.18;;;1.92;;
52724;SDS011;38621;52.830;6.914;2023-08-07T03:38:19;5.85;;;1.85;;
52724;SDS011;38621;52.830;6.914;2023-08-07T03:40:45;5.45;;;1.90;;
52724;SDS011;38621;52.830;6.914;2023-08-07T03:43:10;3.13;;;1.70;;
52724;SDS011;38621;52.830;6.914;2023-08-07T03:45:36;6.00;;;1.40;;
52724;SDS011;38621;52.830;6.914;2023-08-07T03:48:02;4.78;;;1.42;;
52724;SDS011;38621;52.830;6.914;2023-08-07T03:50:28;8.68;;;1.60;;
52724;SDS011;38621;52.830;6.914;2023-08-07T03:52:55;6.20;;;1.83;;
52724;SDS011;38621;52.830;6.914;2023-08-07T03:55:21;3.67;;;1.55;;
52724;SDS011;38621;52.830;6.914;2023-08-07T03:57:47;6.38;;;1.77;;
52724;SDS011;38621;52.830;6.914;2023-08-07T04:00:12;5.32;;;1.70;;
52724;SDS011;38621;52.830;6.914;2023-08-07T04:02:39;4.95;;;1.65;;
52724;SDS011;38621;52.830;6.914;2023-08-07T04:05:05;6.75;;;2.22;;
52724;SDS011;38621;52.830;6.914;2023-08-07T04:07:31;6.68;;;1.75;;
52724;SDS011;38621;52.830;6.914;2023-08-07T04:09:56;5.40;;;1.70;;
52724;SDS011;38621;52.830;6.914;2023-08-07T04:12:22;5.00;;;2.00;;
52724;SDS011;38621;52.830;6.914;2023-08-07T04:14:48;8.20;;;1.80;;
52724;SDS011;38621;52.830;6.914;2023-08-07T04:17:13;5.80;;;1.50;;
52724;SDS011;38621;52.830;6.914;2023-08-07T04:19:39;8.25;;;2.00;;
52724;SDS011;38621;52.830;6.914;2023-08-07T04:22:05;5.47;;;1.77;;
52724;SDS011;38621;52.830;6.914;2023-08-07T04:24:30;5.25;;;1.67;;
52724;SDS011;38621;52.830;6.914;2023-08-07T04:26:56;3.78;;;1.50;;
52724;SDS011;38621;52.830;6.914;2023-08-07T04:29:22;6.47;;;1.45;;
52724;SDS011;38621;52.830;6.914;2023-08-07T04:31:49;5.00;;;2.03;;
52724;SDS011;38621;52.830;6.914;2023-08-07T04:34:14;4.65;;;1.85;;
52724;SDS011;38621;52.830;6.914;2023-08-07T04:36:40;3.47;;;1.50;;
52724;SDS011;38621;52.830;6.914;2023-08-07T04:39:06;4.05;;;1.90;;
52724;SDS011;38621;52.830;6.914;2023-08-07T04:41:32;3.58;;;1.70;;
52724;SDS011;38621;52.830;6.914;2023-08-07T04:43:58;6.40;;;1.60;;
52724;SDS011;38621;52.830;6.914;2023-08-07T04:46:23;5.20;;;1.73;;
52724;SDS011;38621;52.830;6.914;2023-08-07T04:48:49;5.78;;;1.90;;
52724;SDS011;38621;52.830;6.914;2023-08-07T04:51:15;9.43;;;1.95;;
52724;SDS011;38621;52.830;6.914;2023-08-07T04:53:41;6.60;;;1.70;;
52724;SDS011;38621;52.830;6.914;2023-08-07T04:56:06;3.63;;;1.50;;
52724;SDS011;38621;52.830;6.914;2023-08-07T04:58:32;3.97;;;1.60;;
52724;SDS011;38621;52.830;6.914;2023-08-07T05:00:58;3.78;;;1.33;;
52724;SDS011;38621;52.830;6.914;2023-08-07T05:03:25;4.43;;;1.58;;
52724;SDS011;38621;52.830;6.914;2023-08-07T05:05:57;4.15;;;1.55;;
52724;SDS011;38621;52.830;6.914;2023-08-07T05:08:23;4.10;;;1.40;;
52724;SDS011;38621;52.830;6.914;2023-08-07T05:10:49;7.03;;;1.77;;
52724;SDS011;38621;52.830;6.914;2023-08-07T05:13:15;2.55;;;1.30;;
52724;SDS011;38621;52.830;6.914;2023-08-07T05:15:40;4.53;;;1.30;;
52724;SDS011;38621;52.830;6.914;2023-08-07T05:18:06;5.88;;;1.60;;
52724;SDS011;38621;52.830;6.914;2023-08-07T05:20:32;8.02;;;1.83;;
52724;SDS011;38621;52.830;6.914;2023-08-07T05:22:57;6.88;;;1.70;;
52724;SDS011;38621;52.830;6.914;2023-08-07T05:25:23;4.43;;;1.60;;
52724;SDS011;38621;52.830;6.914;2023-08-07T05:27:49;5.05;;;1.42;;
52724;SDS011;38621;52.830;6.914;2023-08-07T05:30:15;3.60;;;1.38;;
52724;SDS011;38621;52.830;6.914;2023-08-07T05:32:40;5.10;;;2.10;;
52724;SDS011;38621;52.830;6.914;2023-08-07T05:35:07;6.00;;;1.80;;
52724;SDS011;38621;52.830;6.914;2023-08-07T05:37:33;6.07;;;1.98;;
52724;SDS011;38621;52.830;6.914;2023-08-07T05:39:59;5.82;;;1.83;;
52724;SDS011;38621;52.830;6.914;2023-08-07T05:42:25;6.90;;;1.90;;
52724;SDS011;38621;52.830;6.914;2023-08-07T05:44:51;7.45;;;1.92;;
52724;SDS011;38621;52.830;6.914;2023-08-07T05:47:16;4.43;;;1.77;;
52724;SDS011;38621;52.830;6.914;2023-08-07T05:49:42;6.65;;;2.05;;
52724;SDS011;38621;52.830;6.914;2023-08-07T05:52:08;3.40;;;1.35;;
52724;SDS011;38621;52.830;6.914;2023-08-07T05:54:34;5.13;;;1.65;;
52724;SDS011;38621;52.830;6.914;2023-08-07T05:56:59;5.13;;;1.50;;
52724;SDS011;38621;52.830;6.914;2023-08-07T05:59:25;3.75;;;1.58;;
52724;SDS011;38621;52.830;6.914;2023-08-07T06:01:51;4.60;;;1.90;;
52724;SDS011;38621;52.830;6.914;2023-08-07T06:04:18;6.50;;;2.55;;
52724;SDS011;38621;52.830;6.914;2023-08-07T06:06:43;4.07;;;1.70;;
52724;SDS011;38621;52.830;6.914;2023-08-07T06:09:10;5.93;;;2.03;;
52724;SDS011;38621;52.830;6.914;2023-08-07T06:11:36;7.65;;;2.05;;
52724;SDS011;38621;52.830;6.914;2023-08-07T06:14:02;6.35;;;2.08;;
52724;SDS011;38621;52.830;6.914;2023-08-07T06:16:27;5.20;;;2.00;;
52724;SDS011;38621;52.830;6.914;2023-08-07T06:18:53;5.25;;;2.00;;
52724;SDS011;38621;52.830;6.914;2023-08-07T06:21:19;4.15;;;1.73;;
52724;SDS011;38621;52.830;6.914;2023-08-07T06:23:45;5.65;;;1.90;;
52724;SDS011;38621;52.830;6.914;2023-08-07T06:26:12;4.72;;;1.83;;
52724;SDS011;38621;52.830;6.914;2023-08-07T06:28:38;7.93;;;2.58;;
52724;SDS011;38621;52.830;6.914;2023-08-07T06:31:04;7.22;;;2.03;;
52724;SDS011;38621;52.830;6.914;2023-08-07T06:33:35;7.97;;;2.97;;
52724;SDS011;38621;52.830;6.914;2023-08-07T06:36:01;7.28;;;2.08;;
52724;SDS011;38621;52.830;6.914;2023-08-07T06:38:28;6.18;;;2.00;;
52724;SDS011;38621;52.830;6.914;2023-08-07T06:40:55;6.80;;;2.17;;
52724;SDS011;38621;52.830;6.914;2023-08-07T06:43:20;5.22;;;2.05;;
52724;SDS011;38621;52.830;6.914;2023-08-07T06:45:47;6.35;;;1.90;;
52724;SDS011;38621;52.830;6.914;2023-08-07T06:48:15;6.88;;;2.17;;
52724;SDS011;38621;52.830;6.914;2023-08-07T06:50:41;4.82;;;1.83;;
52724;SDS011;38621;52.830;6.914;2023-08-07T06:53:07;5.18;;;1.60;;
52724;SDS011;38621;52.830;6.914;2023-08-07T06:55:32;5.32;;;2.40;;
52724;SDS011;38621;52.830;6.914;2023-08-07T06:57:58;6.60;;;1.95;;
52724;SDS011;38621;52.830;6.914;2023-08-07T07:00:24;6.70;;;2.03;;
52724;SDS011;38621;52.830;6.914;2023-08-07T07:02:50;6.70;;;2.03;;
52724;SDS011;38621;52.830;6.914;2023-08-07T07:05:16;8.00;;;2.13;;
52724;SDS011;38621;52.830;6.914;2023-08-07T07:07:42;7.50;;;1.90;;
52724;SDS011;38621;52.830;6.914;2023-08-07T07:10:08;6.18;;;1.83;;
52724;SDS011;38621;52.830;6.914;2023-08-07T07:12:33;5.78;;;1.90;;
52724;SDS011;38621;52.830;6.914;2023-08-07T07:14:59;4.07;;;2.25;;
52724;SDS011;38621;52.830;6.914;2023-08-07T07:17:25;7.10;;;1.70;;
52724;SDS011;38621;52.830;6.914;2023-08-07T07:19:50;5.70;;;1.63;;
52724;SDS011;38621;52.830;6.914;2023-08-07T07:22:16;7.50;;;2.42;;
52724;SDS011;38621;52.830;6.914;2023-08-07T07:24:42;3.67;;;1.60;;
52724;SDS011;38621;52.830;6.914;2023-08-07T07:27:07;6.75;;;2.00;;
52724;SDS011;38621;52.830;6.914;2023-08-07T07:29:33;5.68;;;1.70;;
52724;SDS011;38621;52.830;6.914;2023-08-07T07:31:59;5.43;;;1.73;;
52724;SDS011;38621;52.830;6.914;2023-08-07T07:34:24;6.32;;;2.22;;
52724;SDS011;38621;52.830;6.914;2023-08-07T07:36:50;4.75;;;1.88;;
52724;SDS011;38621;52.830;6.914;2023-08-07T07:39:16;7.15;;;1.83;;
52724;SDS011;38621;52.830;6.914;2023-08-07T07:41:42;6.28;;;1.70;;
52724;SDS011;38621;52.830;6.914;2023-08-07T07:44:08;6.65;;;2.38;;
52724;SDS011;38621;52.830;6.914;2023-08-07T07:46:33;6.53;;;2.20;;
52724;SDS011;38621;52.830;6.914;2023-08-07T07:48:59;4.30;;;1.77;;
52724;SDS011;38621;52.830;6.914;2023-08-07T07:51:26;5.88;;;1.95;;
52724;SDS011;38621;52.830;6.914;2023-08-07T07:53:51;8.27;;;1.95;;
52724;SDS011;38621;52.830;6.914;2023-08-07T07:56:17;4.63;;;1.33;;
52724;SDS011;38621;52.830;6.914;2023-08-07T07:58:43;5.20;;;1.40;;
52724;SDS011;38621;52.830;6.914;2023-08-07T08:01:09;4.22;;;1.70;;
52724;SDS011;38621;52.830;6.914;2023-08-07T08:03:35;3.85;;;1.50;;
52724;SDS011;38621;52.830;6.914;2023-08-07T08:06:00;4.20;;;1.23;;
52724;SDS011;38621;52.830;6.914;2023-08-07T08:08:26;3.65;;;1.00;;
52724;SDS011;38621;52.830;6.914;2023-08-07T08:10:52;4.30;;;1.15;;
52724;SDS011;38621;52.830;6.914;2023-08-07T08:13:18;5.72;;;1.30;;
52724;SDS011;38621;52.830;6.914;2023-08-07T08:15:44;2.40;;;1.17;;
52724;SDS011;38621;52.830;6.914;2023-08-07T08:18:10;4.43;;;1.40;;
52724;SDS011;38621;52.830;6.914;2023-08-07T08:20:36;2.38;;;1.02;;
52724;SDS011;38621;52.830;6.914;2023-08-07T08:23:03;3.38;;;1.23;;
52724;SDS011;38621;52.830;6.914;2023-08-07T08:25:29;4.47;;;1.40;;
52724;SDS011;38621;52.830;6.914;2023-08-07T08:27:56;4.32;;;1.40;;
52724;SDS011;38621;52.830;6.914;2023-08-07T08:30:22;2.75;;;1.30;;
52724;SDS011;38621;52.830;6.914;2023-08-07T08:32:47;4.95;;;1.55;;
52724;SDS011;38621;52.830;6.914;2023-08-07T08:35:13;5.00;;;1.63;;
52724;SDS011;38621;52.830;6.914;2023-08-07T08:37:39;4.93;;;1.45;;
52724;SDS011;38621;52.830;6.914;2023-08-07T08:40:06;3.55;;;1.35;;
52724;SDS011;38621;52.830;6.914;2023-08-07T08:42:33;4.30;;;1.40;;
52724;SDS011;38621;52.830;6.914;2023-08-07T08:44:59;4.25;;;1.85;;
52724;SDS011;38621;52.830;6.914;2023-08-07T08:47:27;3.95;;;1.42;;
52724;SDS011;38621;52.830;6.914;2023-08-07T08:50:04;3.35;;;1.33;;
52724;SDS011;38621;52.830;6.914;2023-08-07T08:52:37;3.78;;;1.30;;
52724;SDS011;38621;52.830;6.914;2023-08-07T08:55:03;5.57;;;1.60;;
52724;SDS011;38621;52.830;6.914;2023-08-07T08:57:31;4.25;;;1.35;;
52724;SDS011;38621;52.830;6.914;2023-08-07T08:59:58;3.90;;;1.45;;
52724;SDS011;38621;52.830;6.914;2023-08-07T09:02:25;4.72;;;1.45;;
52724;SDS011;38621;52.830;6.914;2023-08-07T09:04:51;5.50;;;1.90;;
52724;SDS011;38621;52.830;6.914;2023-08-07T09:07:17;5.45;;;1.60;;
52724;SDS011;38621;52.830;6.914;2023-08-07T09:09:46;3.67;;;1.50;;
52724;SDS011;38621;52.830;6.914;2023-08-07T09:12:15;5.63;;;1.85;;
52724;SDS011;38621;52.830;6.914;2023-08-07T09:14:44;5.18;;;1.92;;
52724;SDS011;38621;52.830;6.914;2023-08-07T09:17:12;5.07;;;2.00;;
52724;SDS011;38621;52.830;6.914;2023-08-07T09:19:39;5.95;;;1.88;;
52724;SDS011;38621;52.830;6.914;2023-08-07T09:22:05;4.05;;;1.52;;
52724;SDS011;38621;52.830;6.914;2023-08-07T09:24:32;5.18;;;1.92;;
52724;SDS011;38621;52.830;6.914;2023-08-07T09:26:57;5.07;;;1.67;;
52724;SDS011;38621;52.830;6.914;2023-08-07T09:29:23;4.43;;;1.50;;
52724;SDS011;38621;52.830;6.914;2023-08-07T09:31:49;3.88;;;1.45;;
52724;SDS011;38621;52.830;6.914;2023-08-07T09:34:15;6.85;;;2.10;;
52724;SDS011;38621;52.830;6.914;2023-08-07T09:36:45;4.75;;;1.75;;
52724;SDS011;38621;52.830;6.914;2023-08-07T09:39:10;6.15;;;1.73;;
52724;SDS011;38621;52.830;6.914;2023-08-07T09:41:36;6.20;;;1.70;;
52724;SDS011;38621;52.830;6.914;2023-08-07T09:44:09;4.30;;;1.30;;
52724;SDS011;38621;52.830;6.914;2023-08-07T09:46:44;4.63;;;1.70;;
52724;SDS011;38621;52.830;6.914;2023-08-07T09:49:10;4.28;;;1.50;;
52724;SDS011;38621;52.830;6.914;2023-08-07T09:54:09;4.10;;;1.33;;
52724;SDS011;38621;52.830;6.914;2023-08-07T09:56:35;5.32;;;1.52;;
52724;SDS011;38621;52.830;6.914;2023-08-07T09:59:01;4.05;;;1.50;;
52724;SDS011;38621;52.830;6.914;2023-08-07T10:01:27;4.05;;;1.30;;
52724;SDS011;38621;52.830;6.914;2023-08-07T10:03:53;4.85;;;1.40;;
52724;SDS011;38621;52.830;6.914;2023-08-07T10:06:19;3.58;;;1.30;;
52724;SDS011;38621;52.830;6.914;2023-08-07T10:08:45;3.47;;;1.30;;
52724;SDS011;38621;52.830;6.914;2023-08-07T10:11:11;3.00;;;1.80;;
52724;SDS011;38621;52.830;6.914;2023-08-07T10:13:39;2.65;;;1.35;;
52724;SDS011;38621;52.830;6.914;2023-08-07T10:16:06;4.80;;;1.67;;
52724;SDS011;38621;52.830;6.914;2023-08-07T10:18:32;3.28;;;1.25;;
52724;SDS011;38621;52.830;6.914;2023-08-07T10:20:58;3.03;;;1.40;;
52724;SDS011;38621;52.830;6.914;2023-08-07T10:23:26;6.63;;;1.33;;
52724;SDS011;38621;52.830;6.914;2023-08-07T10:25:52;4.63;;;1.40;;
52724;SDS011;38621;52.830;6.914;2023-08-07T10:28:20;2.90;;;1.10;;
52724;SDS011;38621;52.830;6.914;2023-08-07T10:30:49;4.63;;;1.23;;
52724;SDS011;38621;52.830;6.914;2023-08-07T10:33:15;6.00;;;1.52;;
52724;SDS011;38621;52.830;6.914;2023-08-07T10:35:47;3.88;;;1.42;;
52724;SDS011;38621;52.830;6.914;2023-08-07T10:38:13;4.60;;;1.30;;
52724;SDS011;38621;52.830;6.914;2023-08-07T10:40:59;4.18;;;1.30;;
52724;SDS011;38621;52.830;6.914;2023-08-07T10:43:28;5.70;;;1.70;;
52724;SDS011;38621;52.830;6.914;2023-08-07T10:46:04;4.15;;;1.25;;
52724;SDS011;38621;52.830;6.914;2023-08-07T10:48:37;4.18;;;1.60;;
52724;SDS011;38621;52.830;6.914;2023-08-07T10:51:13;9.73;;;1.73;;
52724;SDS011;38621;52.830;6.914;2023-08-07T10:53:41;5.45;;;1.52;;
52724;SDS011;38621;52.830;6.914;2023-08-07T10:56:11;2.85;;;1.27;;
52724;SDS011;38621;52.830;6.914;2023-08-07T10:58:47;6.03;;;1.60;;
52724;SDS011;38621;52.830;6.914;2023-08-07T11:03:58;4.50;;;1.35;;
52724;SDS011;38621;52.830;6.914;2023-08-07T11:06:25;5.20;;;1.27;;
52724;SDS011;38621;52.830;6.914;2023-08-07T11:09:02;3.22;;;1.15;;
52724;SDS011;38621;52.830;6.914;2023-08-07T11:11:40;6.05;;;1.48;;
52724;SDS011;38621;52.830;6.914;2023-08-07T11:14:12;6.93;;;1.60;;
52724;SDS011;38621;52.830;6.914;2023-08-07T11:16:39;2.28;;;1.17;;
52724;SDS011;38621;52.830;6.914;2023-08-07T11:19:06;4.95;;;1.38;;
52724;SDS011;38621;52.830;6.914;2023-08-07T11:21:33;3.67;;;1.10;;
52724;SDS011;38621;52.830;6.914;2023-08-07T11:23:59;5.47;;;1.30;;
52724;SDS011;38621;52.830;6.914;2023-08-07T11:26:25;4.35;;;1.38;;
52724;SDS011;38621;52.830;6.914;2023-08-07T11:28:53;3.65;;;1.35;;
52724;SDS011;38621;52.830;6.914;2023-08-07T11:31:19;6.95;;;1.77;;
52724;SDS011;38621;52.830;6.914;2023-08-07T11:33:45;4.88;;;1.50;;
52724;SDS011;38621;52.830;6.914;2023-08-07T11:36:11;3.85;;;1.10;;
52724;SDS011;38621;52.830;6.914;2023-08-07T11:38:39;4.72;;;1.25;;
52724;SDS011;38621;52.830;6.914;2023-08-07T11:41:07;5.13;;;1.60;;
52724;SDS011;38621;52.830;6.914;2023-08-07T11:43:34;8.15;;;1.50;;
52724;SDS011;38621;52.830;6.914;2023-08-07T11:46:00;4.95;;;1.20;;
52724;SDS011;38621;52.830;6.914;2023-08-07T11:48:28;5.13;;;1.77;;
52724;SDS011;38621;52.830;6.914;2023-08-07T11:50:56;2.70;;;1.30;;
52724;SDS011;38621;52.830;6.914;2023-08-07T11:53:23;4.18;;;1.38;;
52724;SDS011;38621;52.830;6.914;2023-08-07T11:56:01;3.03;;;1.38;;
52724;SDS011;38621;52.830;6.914;2023-08-07T11:58:38;3.13;;;1.30;;
52724;SDS011;38621;52.830;6.914;2023-08-07T12:01:06;3.60;;;1.10;;
52724;SDS011;38621;52.830;6.914;2023-08-07T12:03:35;2.72;;;1.20;;
52724;SDS011;38621;52.830;6.914;2023-08-07T12:06:04;6.70;;;1.30;;
52724;SDS011;38621;52.830;6.914;2023-08-07T12:08:35;3.25;;;1.45;;
52724;SDS011;38621;52.830;6.914;2023-08-07T12:11:02;4.05;;;1.40;;
52724;SDS011;38621;52.830;6.914;2023-08-07T12:13:32;3.17;;;1.20;;
52724;SDS011;38621;52.830;6.914;2023-08-07T12:16:00;5.15;;;1.80;;
52724;SDS011;38621;52.830;6.914;2023-08-07T12:18:27;3.30;;;0.95;;
52724;SDS011;38621;52.830;6.914;2023-08-07T12:20:58;3.97;;;1.00;;
52724;SDS011;38621;52.830;6.914;2023-08-07T12:23:24;5.07;;;1.20;;
52724;SDS011;38621;52.830;6.914;2023-08-07T12:25:50;3.28;;;0.98;;
52724;SDS011;38621;52.830;6.914;2023-08-07T12:28:17;2.42;;;1.00;;
52724;SDS011;38621;52.830;6.914;2023-08-07T12:30:46;3.80;;;1.08;;
52724;SDS011;38621;52.830;6.914;2023-08-07T12:33:13;2.95;;;1.00;;
52724;SDS011;38621;52.830;6.914;2023-08-07T12:35:40;4.00;;;1.48;;
52724;SDS011;38621;52.830;6.914;2023-08-07T12:38:06;4.05;;;1.20;;
52724;SDS011;38621;52.830;6.914;2023-08-07T12:40:34;4.72;;;1.65;;
52724;SDS011;38621;52.830;6.914;2023-08-07T12:43:05;4.70;;;1.42;;
52724;SDS011;38621;52.830;6.914;2023-08-07T12:45:32;3.17;;;1.33;;
52724;SDS011;38621;52.830;6.914;2023-08-07T12:47:58;4.50;;;2.55;;
52724;SDS011;38621;52.830;6.914;2023-08-07T12:50:25;4.22;;;1.10;;
52724;SDS011;38621;52.830;6.914;2023-08-07T12:52:51;4.15;;;1.10;;
52724;SDS011;38621;52.830;6.914;2023-08-07T12:55:17;4.57;;;1.30;;
52724;SDS011;38621;52.830;6.914;2023-08-07T12:57:43;3.78;;;1.27;;
52724;SDS011;38621;52.830;6.914;2023-08-07T13:00:09;2.97;;;1.13;;
52724;SDS011;38621;52.830;6.914;2023-08-07T13:02:42;2.42;;;0.90;;
52724;SDS011;38621;52.830;6.914;2023-08-07T13:05:13;3.97;;;1.10;;
52724;SDS011;38621;52.830;6.914;2023-08-07T13:07:40;2.90;;;1.38;;
52724;SDS011;38621;52.830;6.914;2023-08-07T13:10:07;4.45;;;1.42;;
52724;SDS011;38621;52.830;6.914;2023-08-07T13:12:41;7.20;;;2.83;;
52724;SDS011;38621;52.830;6.914;2023-08-07T13:15:08;3.58;;;1.30;;
52724;SDS011;38621;52.830;6.914;2023-08-07T13:17:38;4.15;;;1.50;;
52724;SDS011;38621;52.830;6.914;2023-08-07T13:20:04;2.50;;;1.13;;
52724;SDS011;38621;52.830;6.914;2023-08-07T13:22:36;4.93;;;1.10;;
52724;SDS011;38621;52.830;6.914;2023-08-07T13:25:02;4.18;;;2.03;;
52724;SDS011;38621;52.830;6.914;2023-08-07T13:27:33;4.05;;;1.20;;
52724;SDS011;38621;52.830;6.914;2023-08-07T13:29:59;3.47;;;1.10;;
52724;SDS011;38621;52.830;6.914;2023-08-07T13:32:26;3.60;;;1.27;;
52724;SDS011;38621;52.830;6.914;2023-08-07T13:34:52;3.22;;;1.35;;
52724;SDS011;38621;52.830;6.914;2023-08-07T13:37:18;4.72;;;1.13;;
52724;SDS011;38621;52.830;6.914;2023-08-07T13:39:44;2.65;;;1.15;;
52724;SDS011;38621;52.830;6.914;2023-08-07T13:42:10;2.70;;;1.10;;
52724;SDS011;38621;52.830;6.914;2023-08-07T13:44:36;3.90;;;1.30;;
52724;SDS011;38621;52.830;6.914;2023-08-07T13:47:02;3.05;;;1.00;;
52724;SDS011;38621;52.830;6.914;2023-08-07T13:49:29;3.78;;;1.55;;
52724;SDS011;38621;52.830;6.914;2023-08-07T13:51:55;2.65;;;1.13;;
52724;SDS011;38621;52.830;6.914;2023-08-07T13:54:21;4.15;;;1.10;;
52724;SDS011;38621;52.830;6.914;2023-08-07T13:56:47;2.38;;;1.10;;
52724;SDS011;38621;52.830;6.914;2023-08-07T13:59:13;2.90;;;1.30;;
52724;SDS011;38621;52.830;6.914;2023-08-07T14:01:39;5.40;;;1.50;;
52724;SDS011;38621;52.830;6.914;2023-08-07T14:04:04;2.20;;;1.00;;
52724;SDS011;38621;52.830;6.914;2023-08-07T14:06:30;4.38;;;1.80;;
52724;SDS011;38621;52.830;6.914;2023-08-07T14:08:56;2.17;;;1.20;;
52724;SDS011;38621;52.830;6.914;2023-08-07T14:11:21;2.45;;;1.35;;
52724;SDS011;38621;52.830;6.914;2023-08-07T14:13:49;3.70;;;1.42;;
52724;SDS011;38621;52.830;6.914;2023-08-07T14:16:15;2.70;;;1.30;;
52724;SDS011;38621;52.830;6.914;2023-08-07T14:18:41;3.22;;;1.48;;
52724;SDS011;38621;52.830;6.914;2023-08-07T14:21:07;4.68;;;1.20;;
52724;SDS011;38621;52.830;6.914;2023-08-07T14:23:33;3.88;;;1.40;;
52724;SDS011;38621;52.830;6.914;2023-08-07T14:25:59;4.43;;;1.40;;
52724;SDS011;38621;52.830;6.914;2023-08-07T14:28:25;4.13;;;1.50;;
52724;SDS011;38621;52.830;6.914;2023-08-07T14:30:53;4.05;;;1.45;;
52724;SDS011;38621;52.830;6.914;2023-08-07T14:33:22;4.97;;;1.67;;
52724;SDS011;38621;52.830;6.914;2023-08-07T14:35:47;3.42;;;1.60;;
52724;SDS011;38621;52.830;6.914;2023-08-07T14:38:13;4.10;;;1.75;;
52724;SDS011;38621;52.830;6.914;2023-08-07T14:40:39;4.15;;;1.75;;
52724;SDS011;38621;52.830;6.914;2023-08-07T14:43:06;5.78;;;1.92;;
52724;SDS011;38621;52.830;6.914;2023-08-07T14:45:32;3.58;;;1.48;;
52724;SDS011;38621;52.830;6.914;2023-08-07T14:47:57;5.68;;;1.80;;
52724;SDS011;38621;52.830;6.914;2023-08-07T14:50:23;4.43;;;1.90;;
52724;SDS011;38621;52.830;6.914;2023-08-07T14:52:49;3.65;;;1.50;;
52724;SDS011;38621;52.830;6.914;2023-08-07T14:55:15;5.20;;;1.52;;